sensor_id;sensor_type;location;lat;lon;timestamp;temperature;humidity
23323;DHT22;11833;52.554;13.554;2023-04-24T00:02:45;13.70;99.90
23323;DHT22;11833;52.554;13.554;2023-04-24T00:05:15;13.60;99.90
23323;DHT22;11833;52.554;13.554;2023-04-24T00:07:41;13.70;99.90
23323;DHT22;11833;52.554;13.554;2023-04-24T00:10:09;13.70;99.90
23323;DHT22;11833;52.554;13.554;2023-04-24T00:12:36;13.60;99.90
23323;DHT22;11833;52.554;13.554;2023-04-24T00:15:02;13.70;99.90
23323;DHT22;11833;52.554;13.554;2023-04-24T00:17:28;13.70;99.90
23323;DHT22;11833;52.554;13.554;2023-04-24T00:19:54;13.60;99.90
23323;DHT22;11833;52.554;13.554;2023-04-24T00:22:29;13.50;99.90
23323;DHT22;11833;52.554;13.554;2023-04-24T00:24:56;13.50;99.90
23323;DHT22;11833;52.554;13.554;2023-04-24T00:27:22;13.60;99.90
23323;DHT22;11833;52.554;13.554;2023-04-24T00:29:48;13.50;99.90
23323;DHT22;11833;52.554;13.554;2023-04-24T00:32:14;13.50;99.90
23323;DHT22;11833;52.554;13.554;2023-04-24T00:34:40;13.50;99.90
23323;DHT22;11833;52.554;13.554;2023-04-24T00:37:06;13.50;99.90
23323;DHT22;11833;52.554;13.554;2023-04-24T00:39:32;13.40;99.90
23323;DHT22;11833;52.554;13.554;2023-04-24T00:41:58;13.50;99.90
23323;DHT22;11833;52.554;13.554;2023-04-24T00:44:24;13.50;99.90
23323;DHT22;11833;52.554;13.554;2023-04-24T00:46:50;13.40;99.90
23323;DHT22;11833;52.554;13.554;2023-04-24T00:49:23;13.50;99.90
23323;DHT22;11833;52.554;13.554;2023-04-24T00:51:49;13.50;99.90
23323;DHT22;11833;52.554;13.554;2023-04-24T00:54:17;13.50;99.90
23323;DHT22;11833;52.554;13.554;2023-04-24T00:56:44;13.50;99.90
23323;DHT22;11833;52.554;13.554;2023-04-24T00:59:10;13.50;99.90
23323;DHT22;11833;52.554;13.554;2023-04-24T01:01:41;13.50;99.90
23323;DHT22;11833;52.554;13.554;2023-04-24T01:04:07;13.50;99.90
23323;DHT22;11833;52.554;13.554;2023-04-24T01:06:33;13.40;99.90
23323;DHT22;11833;52.554;13.554;2023-04-24T01:08:59;13.50;99.90
23323;DHT22;11833;52.554;13.554;2023-04-24T01:11:26;13.50;99.90
23323;DHT22;11833;52.554;13.554;2023-04-24T01:13:52;13.50;99.90
23323;DHT22;11833;52.554;13.554;2023-04-24T01:16:18;13.60;99.90
23323;DHT22;11833;52.554;13.554;2023-04-24T01:18:46;13.50;99.90
23323;DHT22;11833;52.554;13.554;2023-04-24T01:21:14;13.50;99.90
23323;DHT22;11833;52.554;13.554;2023-04-24T01:23:44;13.60;99.90
23323;DHT22;11833;52.554;13.554;2023-04-24T01:26:13;13.60;99.90
23323;DHT22;11833;52.554;13.554;2023-04-24T01:28:40;13.40;99.90
23323;DHT22;11833;52.554;13.554;2023-04-24T01:31:06;13.40;99.90
23323;DHT22;11833;52.554;13.554;2023-04-24T01:33:32;13.30;99.90
23323;DHT22;11833;52.554;13.554;2023-04-24T01:35:58;13.40;99.90
23323;DHT22;11833;52.554;13.554;2023-04-24T01:38:25;13.40;99.90
23323;DHT22;11833;52.554;13.554;2023-04-24T01:40:51;13.40;99.90
23323;DHT22;11833;52.554;13.554;2023-04-24T01:43:17;13.40;99.90
23323;DHT22;11833;52.554;13.554;2023-04-24T01:45:43;13.40;99.90
23323;DHT22;11833;52.554;13.554;2023-04-24T01:48:10;13.40;99.90
23323;DHT22;11833;52.554;13.554;2023-04-24T01:50:37;13.30;99.90
23323;DHT22;11833;52.554;13.554;2023-04-24T01:53:03;13.30;99.90
23323;DHT22;11833;52.554;13.554;2023-04-24T01:55:29;13.30;99.90
23323;DHT22;11833;52.554;13.554;2023-04-24T01:57:56;13.20;99.90
23323;DHT22;11833;52.554;13.554;2023-04-24T02:00:22;13.30;99.90
23323;DHT22;11833;52.554;13.554;2023-04-24T02:02:48;13.30;99.90
23323;DHT22;11833;52.554;13.554;2023-04-24T02:05:14;13.20;99.90
23323;DHT22;11833;52.554;13.554;2023-04-24T02:07:40;13.20;99.90
23323;DHT22;11833;52.554;13.554;2023-04-24T02:10:06;13.20;99.90
23323;DHT22;11833;52.554;13.554;2023-04-24T02:12:32;13.20;99.90
23323;DHT22;11833;52.554;13.554;2023-04-24T02:14:58;13.20;99.90
23323;DHT22;11833;52.554;13.554;2023-04-24T02:17:24;13.20;99.90
23323;DHT22;11833;52.554;13.554;2023-04-24T02:19:50;13.20;99.90
23323;DHT22;11833;52.554;13.554;2023-04-24T02:22:16;13.20;99.90
23323;DHT22;11833;52.554;13.554;2023-04-24T02:24:41;13.20;99.90
23323;DHT22;11833;52.554;13.554;2023-04-24T02:27:07;13.10;99.90
23323;DHT22;11833;52.554;13.554;2023-04-24T02:29:33;13.30;99.90
23323;DHT22;11833;52.554;13.554;2023-04-24T02:31:59;13.40;99.90
23323;DHT22;11833;52.554;13.554;2023-04-24T02:34:25;13.30;99.90
23323;DHT22;11833;52.554;13.554;2023-04-24T02:36:51;13.20;99.90
23323;DHT22;11833;52.554;13.554;2023-04-24T02:39:19;13.20;99.90
23323;DHT22;11833;52.554;13.554;2023-04-24T02:41:45;13.10;99.90
23323;DHT22;11833;52.554;13.554;2023-04-24T02:44:10;13.40;99.90
23323;DHT22;11833;52.554;13.554;2023-04-24T02:46:36;13.60;99.90
23323;DHT22;11833;52.554;13.554;2023-04-24T02:49:02;13.30;99.90
23323;DHT22;11833;52.554;13.554;2023-04-24T02:51:28;13.20;99.90
23323;DHT22;11833;52.554;13.554;2023-04-24T02:53:54;13.10;99.90
23323;DHT22;11833;52.554;13.554;2023-04-24T02:56:20;13.00;99.90
23323;DHT22;11833;52.554;13.554;2023-04-24T02:58:46;13.00;99.90
23323;DHT22;11833;52.554;13.554;2023-04-24T03:01:12;13.00;99.90
23323;DHT22;11833;52.554;13.554;2023-04-24T03:03:39;13.10;99.90
23323;DHT22;11833;52.554;13.554;2023-04-24T03:06:05;13.20;99.90
23323;DHT22;11833;52.554;13.554;2023-04-24T03:08:33;13.50;99.90
23323;DHT22;11833;52.554;13.554;2023-04-24T03:10:59;13.50;99.90
23323;DHT22;11833;52.554;13.554;2023-04-24T03:13:25;13.70;99.90
23323;DHT22;11833;52.554;13.554;2023-04-24T03:15:51;13.60;99.90
23323;DHT22;11833;52.554;13.554;2023-04-24T03:18:17;13.50;99.90
23323;DHT22;11833;52.554;13.554;2023-04-24T03:20:45;13.60;99.90
23323;DHT22;11833;52.554;13.554;2023-04-24T03:23:11;13.80;99.90
23323;DHT22;11833;52.554;13.554;2023-04-24T03:25:37;13.90;99.90
23323;DHT22;11833;52.554;13.554;2023-04-24T03:28:03;13.80;99.90
23323;DHT22;11833;52.554;13.554;2023-04-24T03:30:29;13.80;99.90
23323;DHT22;11833;52.554;13.554;2023-04-24T03:32:54;13.80;99.90
23323;DHT22;11833;52.554;13.554;2023-04-24T03:35:20;13.40;99.90
23323;DHT22;11833;52.554;13.554;2023-04-24T03:37:47;13.40;99.90
23323;DHT22;11833;52.554;13.554;2023-04-24T03:40:13;13.10;99.90
23323;DHT22;11833;52.554;13.554;2023-04-24T03:42:38;13.60;99.90
23323;DHT22;11833;52.554;13.554;2023-04-24T03:45:05;13.60;99.90
23323;DHT22;11833;52.554;13.554;2023-04-24T03:47:31;13.70;99.90
23323;DHT22;11833;52.554;13.554;2023-04-24T03:49:57;13.70;99.90
23323;DHT22;11833;52.554;13.554;2023-04-24T03:52:22;13.70;99.90
23323;DHT22;11833;52.554;13.554;2023-04-24T03:54:48;13.60;99.90
23323;DHT22;11833;52.554;13.554;2023-04-24T03:57:14;13.50;99.90
23323;DHT22;11833;52.554;13.554;2023-04-24T03:59:40;13.50;99.90
23323;DHT22;11833;52.554;13.554;2023-04-24T04:02:05;13.60;99.90
23323;DHT22;11833;52.554;13.554;2023-04-24T04:04:31;13.50;99.90
23323;DHT22;11833;52.554;13.554;2023-04-24T04:06:57;13.70;99.90
23323;DHT22;11833;52.554;13.554;2023-04-24T04:09:26;13.40;99.90
23323;DHT22;11833;52.554;13.554;2023-04-24T04:11:52;13.60;99.90
23323;DHT22;11833;52.554;13.554;2023-04-24T04:14:18;13.40;99.90
23323;DHT22;11833;52.554;13.554;2023-04-24T04:16:44;13.40;99.90
23323;DHT22;11833;52.554;13.554;2023-04-24T04:19:10;13.40;99.90
23323;DHT22;11833;52.554;13.554;2023-04-24T04:21:36;13.40;99.90
23323;DHT22;11833;52.554;13.554;2023-04-24T04:24:01;13.30;99.90
23323;DHT22;11833;52.554;13.554;2023-04-24T04:26:27;13.50;99.90
23323;DHT22;11833;52.554;13.554;2023-04-24T04:28:53;13.50;99.90
23323;DHT22;11833;52.554;13.554;2023-04-24T04:31:20;13.60;99.90
23323;DHT22;11833;52.554;13.554;2023-04-24T04:33:46;13.70;99.90
23323;DHT22;11833;52.554;13.554;2023-04-24T04:36:12;13.70;99.90
23323;DHT22;11833;52.554;13.554;2023-04-24T04:38:37;13.80;99.90
23323;DHT22;11833;52.554;13.554;2023-04-24T04:41:04;13.70;99.90
23323;DHT22;11833;52.554;13.554;2023-04-24T04:43:29;13.70;99.90
23323;DHT22;11833;52.554;13.554;2023-04-24T04:45:57;13.60;99.90
23323;DHT22;11833;52.554;13.554;2023-04-24T04:48:23;13.60;99.90
23323;DHT22;11833;52.554;13.554;2023-04-24T04:50:49;13.80;99.90
23323;DHT22;11833;52.554;13.554;2023-04-24T04:53:14;13.70;99.90
23323;DHT22;11833;52.554;13.554;2023-04-24T04:55:40;13.40;99.90
23323;DHT22;11833;52.554;13.554;2023-04-24T04:58:06;13.70;99.90
23323;DHT22;11833;52.554;13.554;2023-04-24T05:00:32;13.70;99.90
23323;DHT22;11833;52.554;13.554;2023-04-24T05:03:01;13.50;99.90
23323;DHT22;11833;52.554;13.554;2023-04-24T05:05:27;13.70;99.90
23323;DHT22;11833;52.554;13.554;2023-04-24T05:07:53;13.80;99.90
23323;DHT22;11833;52.554;13.554;2023-04-24T05:10:19;13.80;99.90
23323;DHT22;11833;52.554;13.554;2023-04-24T05:12:44;14.00;99.90
23323;DHT22;11833;52.554;13.554;2023-04-24T05:15:10;14.00;99.90
23323;DHT22;11833;52.554;13.554;2023-04-24T05:17:36;14.20;99.90
23323;DHT22;11833;52.554;13.554;2023-04-24T05:20:03;14.00;99.90
23323;DHT22;11833;52.554;13.554;2023-04-24T05:22:31;13.90;99.90
23323;DHT22;11833;52.554;13.554;2023-04-24T05:24:57;14.00;99.90
23323;DHT22;11833;52.554;13.554;2023-04-24T05:27:23;14.30;99.90
23323;DHT22;11833;52.554;13.554;2023-04-24T05:29:49;14.10;99.90
23323;DHT22;11833;52.554;13.554;2023-04-24T05:32:15;14.40;99.90
23323;DHT22;11833;52.554;13.554;2023-04-24T05:34:41;14.10;99.90
23323;DHT22;11833;52.554;13.554;2023-04-24T05:37:07;14.30;99.90
23323;DHT22;11833;52.554;13.554;2023-04-24T05:39:35;14.40;99.90
23323;DHT22;11833;52.554;13.554;2023-04-24T05:42:02;14.10;99.90
23323;DHT22;11833;52.554;13.554;2023-04-24T05:44:28;13.90;99.90
23323;DHT22;11833;52.554;13.554;2023-04-24T05:46:54;14.20;99.90
23323;DHT22;11833;52.554;13.554;2023-04-24T05:49:21;13.90;99.90
23323;DHT22;11833;52.554;13.554;2023-04-24T05:51:47;14.40;99.90
23323;DHT22;11833;52.554;13.554;2023-04-24T05:54:12;14.40;99.90
23323;DHT22;11833;52.554;13.554;2023-04-24T05:56:39;14.10;99.90
23323;DHT22;11833;52.554;13.554;2023-04-24T05:59:05;14.30;99.90
23323;DHT22;11833;52.554;13.554;2023-04-24T06:01:31;14.30;99.90
23323;DHT22;11833;52.554;13.554;2023-04-24T06:03:58;14.60;99.90
23323;DHT22;11833;52.554;13.554;2023-04-24T06:06:24;14.20;99.90
23323;DHT22;11833;52.554;13.554;2023-04-24T06:08:50;14.10;99.90
23323;DHT22;11833;52.554;13.554;2023-04-24T06:11:15;14.20;99.90
23323;DHT22;11833;52.554;13.554;2023-04-24T06:13:41;14.40;99.90
23323;DHT22;11833;52.554;13.554;2023-04-24T06:16:07;14.30;99.90
23323;DHT22;11833;52.554;13.554;2023-04-24T06:18:33;14.20;99.90
23323;DHT22;11833;52.554;13.554;2023-04-24T06:20:59;14.60;99.90
23323;DHT22;11833;52.554;13.554;2023-04-24T06:23:25;14.40;99.90
23323;DHT22;11833;52.554;13.554;2023-04-24T06:25:51;14.60;99.90
23323;DHT22;11833;52.554;13.554;2023-04-24T06:28:17;14.30;99.90
23323;DHT22;11833;52.554;13.554;2023-04-24T06:30:42;14.10;99.90
23323;DHT22;11833;52.554;13.554;2023-04-24T06:33:09;14.40;99.90
23323;DHT22;11833;52.554;13.554;2023-04-24T06:35:35;15.00;99.90
23323;DHT22;11833;52.554;13.554;2023-04-24T06:38:01;15.20;99.90
23323;DHT22;11833;52.554;13.554;2023-04-24T06:40:27;14.70;99.90
23323;DHT22;11833;52.554;13.554;2023-04-24T06:42:53;14.30;99.90
23323;DHT22;11833;52.554;13.554;2023-04-24T06:45:19;14.10;99.90
23323;DHT22;11833;52.554;13.554;2023-04-24T06:47:44;14.20;99.90
23323;DHT22;11833;52.554;13.554;2023-04-24T06:50:10;14.80;99.90
23323;DHT22;11833;52.554;13.554;2023-04-24T06:52:36;14.60;99.90
23323;DHT22;11833;52.554;13.554;2023-04-24T06:55:03;14.40;99.90
23323;DHT22;11833;52.554;13.554;2023-04-24T06:57:30;14.60;99.90
23323;DHT22;11833;52.554;13.554;2023-04-24T06:59:56;14.70;99.90
23323;DHT22;11833;52.554;13.554;2023-04-24T07:02:22;14.70;99.90
23323;DHT22;11833;52.554;13.554;2023-04-24T07:04:48;15.10;99.90
23323;DHT22;11833;52.554;13.554;2023-04-24T07:07:13;15.50;99.90
23323;DHT22;11833;52.554;13.554;2023-04-24T07:09:40;15.60;99.90
23323;DHT22;11833;52.554;13.554;2023-04-24T07:12:10;15.40;99.90
23323;DHT22;11833;52.554;13.554;2023-04-24T07:14:37;15.10;99.90
23323;DHT22;11833;52.554;13.554;2023-04-24T07:17:06;15.00;99.90
23323;DHT22;11833;52.554;13.554;2023-04-24T07:19:34;15.00;99.90
23323;DHT22;11833;52.554;13.554;2023-04-24T07:22:01;15.20;99.90
23323;DHT22;11833;52.554;13.554;2023-04-24T07:24:27;15.40;99.90
23323;DHT22;11833;52.554;13.554;2023-04-24T07:26:54;15.00;99.90
23323;DHT22;11833;52.554;13.554;2023-04-24T07:29:20;15.10;99.90
23323;DHT22;11833;52.554;13.554;2023-04-24T07:31:46;15.00;99.90
23323;DHT22;11833;52.554;13.554;2023-04-24T07:34:12;14.90;99.90
23323;DHT22;11833;52.554;13.554;2023-04-24T07:36:38;15.20;99.90
23323;DHT22;11833;52.554;13.554;2023-04-24T07:39:04;15.20;99.90
23323;DHT22;11833;52.554;13.554;2023-04-24T07:41:31;15.40;99.90
23323;DHT22;11833;52.554;13.554;2023-04-24T07:43:57;15.20;99.90
23323;DHT22;11833;52.554;13.554;2023-04-24T07:46:23;15.40;99.90
23323;DHT22;11833;52.554;13.554;2023-04-24T07:48:50;15.60;98.80
23323;DHT22;11833;52.554;13.554;2023-04-24T07:51:16;15.60;98.40
23323;DHT22;11833;52.554;13.554;2023-04-24T07:53:42;15.40;98.40
23323;DHT22;11833;52.554;13.554;2023-04-24T07:56:08;16.00;99.90
23323;DHT22;11833;52.554;13.554;2023-04-24T07:58:34;16.20;95.60
23323;DHT22;11833;52.554;13.554;2023-04-24T08:01:00;16.40;96.30
23323;DHT22;11833;52.554;13.554;2023-04-24T08:03:26;16.30;97.20
23323;DHT22;11833;52.554;13.554;2023-04-24T08:05:52;16.20;99.90
23323;DHT22;11833;52.554;13.554;2023-04-24T08:08:20;16.40;96.00
23323;DHT22;11833;52.554;13.554;2023-04-24T08:10:47;16.20;94.90
23323;DHT22;11833;52.554;13.554;2023-04-24T08:13:12;16.20;96.30
23323;DHT22;11833;52.554;13.554;2023-04-24T08:15:38;16.30;96.80
23323;DHT22;11833;52.554;13.554;2023-04-24T08:18:04;16.30;96.40
23323;DHT22;11833;52.554;13.554;2023-04-24T08:20:30;16.10;91.80
23323;DHT22;11833;52.554;13.554;2023-04-24T08:22:56;16.90;95.90
23323;DHT22;11833;52.554;13.554;2023-04-24T08:25:22;17.30;92.70
23323;DHT22;11833;52.554;13.554;2023-04-24T08:27:48;16.80;90.40
23323;DHT22;11833;52.554;13.554;2023-04-24T08:30:15;16.70;92.80
23323;DHT22;11833;52.554;13.554;2023-04-24T08:32:40;16.80;90.40
23323;DHT22;11833;52.554;13.554;2023-04-24T08:35:07;17.00;92.10
23323;DHT22;11833;52.554;13.554;2023-04-24T08:37:35;17.20;91.90
23323;DHT22;11833;52.554;13.554;2023-04-24T08:40:02;17.50;84.80
23323;DHT22;11833;52.554;13.554;2023-04-24T08:42:33;17.60;84.60
23323;DHT22;11833;52.554;13.554;2023-04-24T08:45:01;17.10;78.50
23323;DHT22;11833;52.554;13.554;2023-04-24T08:47:29;16.80;80.80
23323;DHT22;11833;52.554;13.554;2023-04-24T08:49:56;16.80;87.30
23323;DHT22;11833;52.554;13.554;2023-04-24T08:52:22;17.70;82.20
23323;DHT22;11833;52.554;13.554;2023-04-24T08:54:48;18.10;84.10
23323;DHT22;11833;52.554;13.554;2023-04-24T08:57:14;18.30;76.50
23323;DHT22;11833;52.554;13.554;2023-04-24T08:59:40;17.80;75.20
23323;DHT22;11833;52.554;13.554;2023-04-24T09:02:10;17.80;79.50
23323;DHT22;11833;52.554;13.554;2023-04-24T09:04:37;17.90;77.00
23323;DHT22;11833;52.554;13.554;2023-04-24T09:07:04;17.50;76.40
23323;DHT22;11833;52.554;13.554;2023-04-24T09:09:32;17.60;82.30
23323;DHT22;11833;52.554;13.554;2023-04-24T09:11:58;17.90;82.50
23323;DHT22;11833;52.554;13.554;2023-04-24T09:14:24;18.40;84.80
23323;DHT22;11833;52.554;13.554;2023-04-24T09:16:50;18.70;79.20
23323;DHT22;11833;52.554;13.554;2023-04-24T09:19:16;18.40;78.60
23323;DHT22;11833;52.554;13.554;2023-04-24T09:21:46;18.10;79.30
23323;DHT22;11833;52.554;13.554;2023-04-24T09:24:16;18.10;84.00
23323;DHT22;11833;52.554;13.554;2023-04-24T09:26:44;17.80;78.00
23323;DHT22;11833;52.554;13.554;2023-04-24T09:29:15;18.60;77.50
23323;DHT22;11833;52.554;13.554;2023-04-24T09:31:42;18.30;78.60
23323;DHT22;11833;52.554;13.554;2023-04-24T09:34:08;18.60;77.80
23323;DHT22;11833;52.554;13.554;2023-04-24T09:36:37;18.80;74.20
23323;DHT22;11833;52.554;13.554;2023-04-24T09:39:06;18.60;73.70
23323;DHT22;11833;52.554;13.554;2023-04-24T09:41:54;18.40;75.90
23323;DHT22;11833;52.554;13.554;2023-04-24T09:44:27;18.40;77.50
23323;DHT22;11833;52.554;13.554;2023-04-24T09:47:00;18.40;78.10
23323;DHT22;11833;52.554;13.554;2023-04-24T09:49:32;18.70;74.50
23323;DHT22;11833;52.554;13.554;2023-04-24T09:52:09;18.50;72.70
23323;DHT22;11833;52.554;13.554;2023-04-24T09:54:36;18.20;73.60
23323;DHT22;11833;52.554;13.554;2023-04-24T09:57:03;18.20;73.50
23323;DHT22;11833;52.554;13.554;2023-04-24T09:59:29;18.10;74.00
23323;DHT22;11833;52.554;13.554;2023-04-24T10:01:55;18.30;73.40
23323;DHT22;11833;52.554;13.554;2023-04-24T10:04:23;17.90;74.10
23323;DHT22;11833;52.554;13.554;2023-04-24T10:06:51;17.40;76.60
23323;DHT22;11833;52.554;13.554;2023-04-24T10:09:20;17.50;77.30
23323;DHT22;11833;52.554;13.554;2023-04-24T10:11:49;17.60;77.50
23323;DHT22;11833;52.554;13.554;2023-04-24T10:14:24;17.80;77.00
23323;DHT22;11833;52.554;13.554;2023-04-24T10:16:53;17.50;79.40
23323;DHT22;11833;52.554;13.554;2023-04-24T10:19:20;17.50;80.60
23323;DHT22;11833;52.554;13.554;2023-04-24T10:21:46;17.60;81.20
23323;DHT22;11833;52.554;13.554;2023-04-24T10:24:14;17.60;82.70
23323;DHT22;11833;52.554;13.554;2023-04-24T10:26:42;17.90;83.60
23323;DHT22;11833;52.554;13.554;2023-04-24T10:29:10;18.30;80.90
23323;DHT22;11833;52.554;13.554;2023-04-24T10:31:38;18.20;77.00
23323;DHT22;11833;52.554;13.554;2023-04-24T10:34:05;18.40;80.70
23323;DHT22;11833;52.554;13.554;2023-04-24T10:36:33;18.60;79.80
23323;DHT22;11833;52.554;13.554;2023-04-24T10:39:02;18.70;78.10
23323;DHT22;11833;52.554;13.554;2023-04-24T10:41:30;19.10;76.50
23323;DHT22;11833;52.554;13.554;2023-04-24T10:44:10;19.00;72.70
23323;DHT22;11833;52.554;13.554;2023-04-24T10:46:38;18.80;71.40
23323;DHT22;11833;52.554;13.554;2023-04-24T10:49:08;19.10;72.50
23323;DHT22;11833;52.554;13.554;2023-04-24T10:51:50;19.30;70.50
23323;DHT22;11833;52.554;13.554;2023-04-24T10:54:23;19.10;72.40
23323;DHT22;11833;52.554;13.554;2023-04-24T10:56:50;19.20;70.70
23323;DHT22;11833;52.554;13.554;2023-04-24T10:59:27;19.10;71.30
23323;DHT22;11833;52.554;13.554;2023-04-24T11:01:54;18.90;71.00
23323;DHT22;11833;52.554;13.554;2023-04-24T11:04:32;18.40;70.50
23323;DHT22;11833;52.554;13.554;2023-04-24T11:07:00;18.00;72.70
23323;DHT22;11833;52.554;13.554;2023-04-24T11:09:28;18.20;74.40
23323;DHT22;11833;52.554;13.554;2023-04-24T11:12:10;17.80;74.00
23323;DHT22;11833;52.554;13.554;2023-04-24T11:17:35;18.00;73.80
23323;DHT22;11833;52.554;13.554;2023-04-24T11:20:11;17.90;74.00
23323;DHT22;11833;52.554;13.554;2023-04-24T11:22:39;18.00;74.70
23323;DHT22;11833;52.554;13.554;2023-04-24T11:25:08;18.30;73.80
23323;DHT22;11833;52.554;13.554;2023-04-24T11:27:42;18.30;73.10
23323;DHT22;11833;52.554;13.554;2023-04-24T11:30:10;18.60;74.20
23323;DHT22;11833;52.554;13.554;2023-04-24T11:32:41;19.70;71.60
23323;DHT22;11833;52.554;13.554;2023-04-24T11:35:15;20.20;68.50
23323;DHT22;11833;52.554;13.554;2023-04-24T11:37:46;20.00;67.00
23323;DHT22;11833;52.554;13.554;2023-04-24T11:40:17;19.60;70.80
23323;DHT22;11833;52.554;13.554;2023-04-24T11:42:50;19.70;69.80
23323;DHT22;11833;52.554;13.554;2023-04-24T11:45:24;19.60;68.10
23323;DHT22;11833;52.554;13.554;2023-04-24T11:47:52;18.60;70.80
23323;DHT22;11833;52.554;13.554;2023-04-24T11:50:20;18.30;73.60
23323;DHT22;11833;52.554;13.554;2023-04-24T11:52:48;18.70;74.70
23323;DHT22;11833;52.554;13.554;2023-04-24T11:57:45;16.80;94.80
23323;DHT22;11833;52.554;13.554;2023-04-24T12:00:20;16.60;97.80
23323;DHT22;11833;52.554;13.554;2023-04-24T12:02:48;16.10;99.90
23323;DHT22;11833;52.554;13.554;2023-04-24T12:05:26;16.40;99.90
23323;DHT22;11833;52.554;13.554;2023-04-24T12:07:53;16.90;99.90
23323;DHT22;11833;52.554;13.554;2023-04-24T12:10:24;17.40;99.90
23323;DHT22;11833;52.554;13.554;2023-04-24T12:12:51;17.90;99.90
23323;DHT22;11833;52.554;13.554;2023-04-24T12:15:19;18.40;99.90
23323;DHT22;11833;52.554;13.554;2023-04-24T12:17:45;18.80;99.90
23323;DHT22;11833;52.554;13.554;2023-04-24T12:20:12;19.10;99.70
23323;DHT22;11833;52.554;13.554;2023-04-24T12:25:22;20.20;95.90
23323;DHT22;11833;52.554;13.554;2023-04-24T12:27:54;20.90;94.70
23323;DHT22;11833;52.554;13.554;2023-04-24T12:30:25;22.10;85.00
23323;DHT22;11833;52.554;13.554;2023-04-24T12:32:53;22.50;76.90
23323;DHT22;11833;52.554;13.554;2023-04-24T12:35:22;22.70;72.00
23323;DHT22;11833;52.554;13.554;2023-04-24T12:37:49;22.60;66.80
23323;DHT22;11833;52.554;13.554;2023-04-24T12:40:16;22.30;69.40
23323;DHT22;11833;52.554;13.554;2023-04-24T12:42:45;22.60;68.60
23323;DHT22;11833;52.554;13.554;2023-04-24T12:45:12;22.50;65.90
23323;DHT22;11833;52.554;13.554;2023-04-24T12:47:39;23.20;62.20
23323;DHT22;11833;52.554;13.554;2023-04-24T12:50:08;23.20;59.40
23323;DHT22;11833;52.554;13.554;2023-04-24T12:52:36;21.70;59.50
23323;DHT22;11833;52.554;13.554;2023-04-24T12:55:02;21.20;63.00
23323;DHT22;11833;52.554;13.554;2023-04-24T12:57:30;21.30;62.40
23323;DHT22;11833;52.554;13.554;2023-04-24T12:59:58;21.00;60.60
23323;DHT22;11833;52.554;13.554;2023-04-24T13:02:28;21.10;58.20
23323;DHT22;11833;52.554;13.554;2023-04-24T13:04:56;20.80;57.30
23323;DHT22;11833;52.554;13.554;2023-04-24T13:07:23;20.80;57.40
23323;DHT22;11833;52.554;13.554;2023-04-24T13:09:51;20.60;54.70
23323;DHT22;11833;52.554;13.554;2023-04-24T13:12:17;20.10;56.60
23323;DHT22;11833;52.554;13.554;2023-04-24T13:14:43;21.00;54.20
23323;DHT22;11833;52.554;13.554;2023-04-24T13:17:09;21.40;50.70
23323;DHT22;11833;52.554;13.554;2023-04-24T13:19:37;21.80;49.70
23323;DHT22;11833;52.554;13.554;2023-04-24T13:22:04;22.30;47.80
23323;DHT22;11833;52.554;13.554;2023-04-24T13:24:31;21.60;48.60
23323;DHT22;11833;52.554;13.554;2023-04-24T13:26:57;21.10;49.50
23323;DHT22;11833;52.554;13.554;2023-04-24T13:29:23;21.40;48.10
23323;DHT22;11833;52.554;13.554;2023-04-24T13:31:53;21.70;45.70
23323;DHT22;11833;52.554;13.554;2023-04-24T13:34:23;21.60;45.40
23323;DHT22;11833;52.554;13.554;2023-04-24T13:36:54;21.60;45.90
23323;DHT22;11833;52.554;13.554;2023-04-24T13:39:23;22.50;43.80
23323;DHT22;11833;52.554;13.554;2023-04-24T13:41:49;22.70;43.30
23323;DHT22;11833;52.554;13.554;2023-04-24T13:44:19;22.60;43.20
23323;DHT22;11833;52.554;13.554;2023-04-24T13:46:47;22.70;42.60
23323;DHT22;11833;52.554;13.554;2023-04-24T13:49:15;22.80;42.00
23323;DHT22;11833;52.554;13.554;2023-04-24T13:51:42;22.40;42.70
23323;DHT22;11833;52.554;13.554;2023-04-24T13:54:08;22.40;42.20
23323;DHT22;11833;52.554;13.554;2023-04-24T13:56:34;22.80;41.70
23323;DHT22;11833;52.554;13.554;2023-04-24T13:59:00;22.70;41.40
23323;DHT22;11833;52.554;13.554;2023-04-24T14:01:26;22.90;39.80
23323;DHT22;11833;52.554;13.554;2023-04-24T14:03:53;22.80;39.30
23323;DHT22;11833;52.554;13.554;2023-04-24T14:06:21;23.10;39.50
23323;DHT22;11833;52.554;13.554;2023-04-24T14:08:48;23.00;38.90
23323;DHT22;11833;52.554;13.554;2023-04-24T14:11:14;22.10;40.20
23323;DHT22;11833;52.554;13.554;2023-04-24T14:13:44;21.60;42.70
23323;DHT22;11833;52.554;13.554;2023-04-24T14:16:10;21.90;43.10
23323;DHT22;11833;52.554;13.554;2023-04-24T14:18:36;22.10;42.70
23323;DHT22;11833;52.554;13.554;2023-04-24T14:21:03;22.10;41.70
23323;DHT22;11833;52.554;13.554;2023-04-24T14:23:29;22.30;42.10
23323;DHT22;11833;52.554;13.554;2023-04-24T14:25:56;22.50;42.60
23323;DHT22;11833;52.554;13.554;2023-04-24T14:28:23;22.40;40.80
23323;DHT22;11833;52.554;13.554;2023-04-24T14:30:49;21.80;43.20
23323;DHT22;11833;52.554;13.554;2023-04-24T14:33:15;21.50;43.70
23323;DHT22;11833;52.554;13.554;2023-04-24T14:35:41;21.80;43.80
23323;DHT22;11833;52.554;13.554;2023-04-24T14:38:08;22.00;43.20
23323;DHT22;11833;52.554;13.554;2023-04-24T14:40:34;22.10;43.60
23323;DHT22;11833;52.554;13.554;2023-04-24T14:43:00;21.90;42.00
23323;DHT22;11833;52.554;13.554;2023-04-24T14:45:26;20.90;43.70
23323;DHT22;11833;52.554;13.554;2023-04-24T14:47:53;20.50;44.60
23323;DHT22;11833;52.554;13.554;2023-04-24T14:50:19;20.60;44.70
23323;DHT22;11833;52.554;13.554;2023-04-24T14:52:45;21.50;44.00
23323;DHT22;11833;52.554;13.554;2023-04-24T14:55:12;21.80;42.90
23323;DHT22;11833;52.554;13.554;2023-04-24T14:57:38;21.90;40.90
23323;DHT22;11833;52.554;13.554;2023-04-24T15:00:06;21.00;42.20
23323;DHT22;11833;52.554;13.554;2023-04-24T15:02:34;20.90;44.10
23323;DHT22;11833;52.554;13.554;2023-04-24T15:05:02;20.80;44.40
23323;DHT22;11833;52.554;13.554;2023-04-24T15:07:29;20.40;45.60
23323;DHT22;11833;52.554;13.554;2023-04-24T15:09:56;20.00;45.90
23323;DHT22;11833;52.554;13.554;2023-04-24T15:12:22;20.10;46.90
23323;DHT22;11833;52.554;13.554;2023-04-24T15:14:48;20.60;47.10
23323;DHT22;11833;52.554;13.554;2023-04-24T15:17:14;20.90;46.00
23323;DHT22;11833;52.554;13.554;2023-04-24T15:19:39;21.20;45.80
23323;DHT22;11833;52.554;13.554;2023-04-24T15:22:05;21.20;45.00
23323;DHT22;11833;52.554;13.554;2023-04-24T15:24:31;20.90;45.40